sensor_id;sensor_type;location;lat;lon;timestamp;temperature;humidity
15879;DHT22;61999;51.514;14.614;2022-08-19T00:01:28;18.60;58.30
15879;DHT22;61999;51.514;14.614;2022-08-19T00:03:58;18.60;58.30
15879;DHT22;61999;51.514;14.614;2022-08-19T00:06:28;18.60;58.00
15879;DHT22;61999;51.514;14.614;2022-08-19T00:08:58;18.50;58.40
15879;DHT22;61999;51.514;14.614;2022-08-19T00:11:27;18.40;59.70
15879;DHT22;61999;51.514;14.614;2022-08-19T00:13:56;18.40;58.70
15879;DHT22;61999;51.514;14.614;2022-08-19T00:16:25;18.30;58.90
15879;DHT22;61999;51.514;14.614;2022-08-19T00:18:53;18.20;59.80
15879;DHT22;61999;51.514;14.614;2022-08-19T00:21:23;18.20;60.00
15879;DHT22;61999;51.514;14.614;2022-08-19T00:23:54;18.20;59.80
15879;DHT22;61999;51.514;14.614;2022-08-19T00:26:26;18.10;60.30
15879;DHT22;61999;51.514;14.614;2022-08-19T00:28:55;18.00;60.10
15879;DHT22;61999;51.514;14.614;2022-08-19T00:31:23;18.00;60.20
15879;DHT22;61999;51.514;14.614;2022-08-19T00:33:54;17.90;61.00
15879;DHT22;61999;51.514;14.614;2022-08-19T00:36:22;17.90;60.50
15879;DHT22;61999;51.514;14.614;2022-08-19T00:38:50;17.80;60.70
15879;DHT22;61999;51.514;14.614;2022-08-19T00:41:21;17.80;60.50
15879;DHT22;61999;51.514;14.614;2022-08-19T00:44:02;17.80;60.50
15879;DHT22;61999;51.514;14.614;2022-08-19T00:46:34;17.80;59.80
15879;DHT22;61999;51.514;14.614;2022-08-19T00:49:09;17.80;59.60
15879;DHT22;61999;51.514;14.614;2022-08-19T00:51:42;17.80;59.50
15879;DHT22;61999;51.514;14.614;2022-08-19T00:54:12;17.80;59.40
15879;DHT22;61999;51.514;14.614;2022-08-19T00:56:41;17.80;59.40
15879;DHT22;61999;51.514;14.614;2022-08-19T00:59:12;17.80;59.40
15879;DHT22;61999;51.514;14.614;2022-08-19T01:01:42;17.80;59.30
15879;DHT22;61999;51.514;14.614;2022-08-19T01:04:12;17.80;59.40
15879;DHT22;61999;51.514;14.614;2022-08-19T01:06:40;17.80;59.60
15879;DHT22;61999;51.514;14.614;2022-08-19T01:09:09;17.80;59.60
15879;DHT22;61999;51.514;14.614;2022-08-19T01:11:41;17.80;59.90
15879;DHT22;61999;51.514;14.614;2022-08-19T01:14:13;17.80;59.70
15879;DHT22;61999;51.514;14.614;2022-08-19T01:16:44;17.80;59.60
15879;DHT22;61999;51.514;14.614;2022-08-19T01:19:19;17.70;59.80
15879;DHT22;61999;51.514;14.614;2022-08-19T01:21:55;17.90;61.90
15879;DHT22;61999;51.514;14.614;2022-08-19T01:24:29;18.10;61.10
15879;DHT22;61999;51.514;14.614;2022-08-19T01:26:58;18.10;60.00
15879;DHT22;61999;51.514;14.614;2022-08-19T01:29:26;17.90;60.30
15879;DHT22;61999;51.514;14.614;2022-08-19T01:31:55;18.00;60.50
15879;DHT22;61999;51.514;14.614;2022-08-19T01:34:23;17.80;59.80
15879;DHT22;61999;51.514;14.614;2022-08-19T01:36:52;17.70;59.80
15879;DHT22;61999;51.514;14.614;2022-08-19T01:39:22;17.50;59.80
15879;DHT22;61999;51.514;14.614;2022-08-19T01:41:53;17.40;60.20
15879;DHT22;61999;51.514;14.614;2022-08-19T01:44:21;17.30;60.30
15879;DHT22;61999;51.514;14.614;2022-08-19T01:46:51;17.20;60.40
15879;DHT22;61999;51.514;14.614;2022-08-19T01:49:21;17.30;61.80
15879;DHT22;61999;51.514;14.614;2022-08-19T01:51:51;17.30;61.30
15879;DHT22;61999;51.514;14.614;2022-08-19T01:54:23;17.30;61.50
15879;DHT22;61999;51.514;14.614;2022-08-19T01:56:57;17.30;61.20
15879;DHT22;61999;51.514;14.614;2022-08-19T01:59:28;17.10;60.90
15879;DHT22;61999;51.514;14.614;2022-08-19T02:01:57;17.00;60.80
15879;DHT22;61999;51.514;14.614;2022-08-19T02:04:25;16.90;60.80
15879;DHT22;61999;51.514;14.614;2022-08-19T02:06:53;16.80;61.00
15879;DHT22;61999;51.514;14.614;2022-08-19T02:09:21;16.70;61.00
15879;DHT22;61999;51.514;14.614;2022-08-19T02:11:49;16.70;61.10
15879;DHT22;61999;51.514;14.614;2022-08-19T02:14:18;16.60;61.10
15879;DHT22;61999;51.514;14.614;2022-08-19T02:16:46;16.60;61.30
15879;DHT22;61999;51.514;14.614;2022-08-19T02:19:14;16.60;61.40
15879;DHT22;61999;51.514;14.614;2022-08-19T02:21:42;16.50;61.30
15879;DHT22;61999;51.514;14.614;2022-08-19T02:24:11;16.50;61.60
15879;DHT22;61999;51.514;14.614;2022-08-19T02:26:39;16.50;61.60
15879;DHT22;61999;51.514;14.614;2022-08-19T02:29:08;16.40;61.70
15879;DHT22;61999;51.514;14.614;2022-08-19T02:31:37;16.40;61.70
15879;DHT22;61999;51.514;14.614;2022-08-19T02:34:05;16.40;61.70
15879;DHT22;61999;51.514;14.614;2022-08-19T02:36:33;16.30;61.60
15879;DHT22;61999;51.514;14.614;2022-08-19T02:39:02;16.30;61.70
15879;DHT22;61999;51.514;14.614;2022-08-19T02:41:32;16.30;61.80
15879;DHT22;61999;51.514;14.614;2022-08-19T02:44:02;16.20;63.10
15879;DHT22;61999;51.514;14.614;2022-08-19T02:46:32;16.20;63.90
15879;DHT22;61999;51.514;14.614;2022-08-19T02:49:06;16.10;62.50
15879;DHT22;61999;51.514;14.614;2022-08-19T02:51:36;16.10;62.40
15879;DHT22;61999;51.514;14.614;2022-08-19T02:54:08;16.10;62.50
15879;DHT22;61999;51.514;14.614;2022-08-19T02:56:41;16.10;62.50
15879;DHT22;61999;51.514;14.614;2022-08-19T02:59:10;16.10;62.60
15879;DHT22;61999;51.514;14.614;2022-08-19T03:01:40;16.10;63.30
15879;DHT22;61999;51.514;14.614;2022-08-19T03:04:12;16.10;63.50
15879;DHT22;61999;51.514;14.614;2022-08-19T03:06:44;16.10;63.20
15879;DHT22;61999;51.514;14.614;2022-08-19T03:09:14;16.40;63.90
15879;DHT22;61999;51.514;14.614;2022-08-19T03:11:42;16.40;63.10
15879;DHT22;61999;51.514;14.614;2022-08-19T03:14:11;16.40;63.20
15879;DHT22;61999;51.514;14.614;2022-08-19T03:16:42;16.30;63.00
15879;DHT22;61999;51.514;14.614;2022-08-19T03:19:15;16.50;63.10
15879;DHT22;61999;51.514;14.614;2022-08-19T03:21:45;16.40;63.00
15879;DHT22;61999;51.514;14.614;2022-08-19T03:24:14;16.30;62.90
15879;DHT22;61999;51.514;14.614;2022-08-19T03:26:47;16.30;63.00
15879;DHT22;61999;51.514;14.614;2022-08-19T03:29:17;16.30;63.40
15879;DHT22;61999;51.514;14.614;2022-08-19T03:31:46;16.20;63.20
15879;DHT22;61999;51.514;14.614;2022-08-19T03:34:20;16.20;63.00
15879;DHT22;61999;51.514;14.614;2022-08-19T03:36:53;16.30;63.30
15879;DHT22;61999;51.514;14.614;2022-08-19T03:39:23;16.20;63.00
15879;DHT22;61999;51.514;14.614;2022-08-19T03:41:53;16.20;63.20
15879;DHT22;61999;51.514;14.614;2022-08-19T03:44:23;16.20;63.00
15879;DHT22;61999;51.514;14.614;2022-08-19T03:47:00;16.30;63.40
15879;DHT22;61999;51.514;14.614;2022-08-19T03:49:32;16.40;63.10
15879;DHT22;61999;51.514;14.614;2022-08-19T03:52:02;16.30;63.00
15879;DHT22;61999;51.514;14.614;2022-08-19T03:54:34;16.20;63.00
15879;DHT22;61999;51.514;14.614;2022-08-19T03:57:02;16.10;63.40
15879;DHT22;61999;51.514;14.614;2022-08-19T03:59:34;16.10;63.50
15879;DHT22;61999;51.514;14.614;2022-08-19T04:02:08;16.10;63.50
15879;DHT22;61999;51.514;14.614;2022-08-19T04:04:41;16.10;63.60
15879;DHT22;61999;51.514;14.614;2022-08-19T04:07:11;16.30;65.20
15879;DHT22;61999;51.514;14.614;2022-08-19T04:09:42;16.50;63.70
15879;DHT22;61999;51.514;14.614;2022-08-19T04:12:10;16.40;63.80
15879;DHT22;61999;51.514;14.614;2022-08-19T04:14:38;16.40;63.80
15879;DHT22;61999;51.514;14.614;2022-08-19T04:17:06;16.30;63.60
15879;DHT22;61999;51.514;14.614;2022-08-19T04:19:35;16.30;63.70
15879;DHT22;61999;51.514;14.614;2022-08-19T04:22:05;16.30;64.10
15879;DHT22;61999;51.514;14.614;2022-08-19T04:24:34;16.20;63.80
15879;DHT22;61999;51.514;14.614;2022-08-19T04:27:03;16.20;63.80
15879;DHT22;61999;51.514;14.614;2022-08-19T04:29:33;16.30;64.20
15879;DHT22;61999;51.514;14.614;2022-08-19T04:32:02;16.30;64.10
15879;DHT22;61999;51.514;14.614;2022-08-19T04:34:32;16.40;64.30
15879;DHT22;61999;51.514;14.614;2022-08-19T04:36:59;16.40;64.10
15879;DHT22;61999;51.514;14.614;2022-08-19T04:39:30;16.40;64.10
15879;DHT22;61999;51.514;14.614;2022-08-19T04:42:17;16.40;64.00
15879;DHT22;61999;51.514;14.614;2022-08-19T04:45:03;16.40;64.00
15879;DHT22;61999;51.514;14.614;2022-08-19T04:47:32;16.40;64.10
15879;DHT22;61999;51.514;14.614;2022-08-19T04:50:00;16.50;64.30
15879;DHT22;61999;51.514;14.614;2022-08-19T04:52:28;16.50;63.80
15879;DHT22;61999;51.514;14.614;2022-08-19T04:54:59;16.50;63.90
15879;DHT22;61999;51.514;14.614;2022-08-19T04:57:27;16.50;64.10
15879;DHT22;61999;51.514;14.614;2022-08-19T04:59:56;16.50;64.00
15879;DHT22;61999;51.514;14.614;2022-08-19T05:02:24;16.40;64.30
15879;DHT22;61999;51.514;14.614;2022-08-19T05:04:56;16.50;64.50
15879;DHT22;61999;51.514;14.614;2022-08-19T05:07:27;16.50;64.40
15879;DHT22;61999;51.514;14.614;2022-08-19T05:09:55;16.50;64.40
15879;DHT22;61999;51.514;14.614;2022-08-19T05:12:24;16.60;64.60
15879;DHT22;61999;51.514;14.614;2022-08-19T05:14:54;16.70;64.30
15879;DHT22;61999;51.514;14.614;2022-08-19T05:17:23;16.80;64.50
15879;DHT22;61999;51.514;14.614;2022-08-19T05:19:53;17.20;63.80
15879;DHT22;61999;51.514;14.614;2022-08-19T05:22:39;17.20;63.30
15879;DHT22;61999;51.514;14.614;2022-08-19T05:25:10;17.10;63.60
15879;DHT22;61999;51.514;14.614;2022-08-19T05:27:42;17.20;63.80
15879;DHT22;61999;51.514;14.614;2022-08-19T05:30:11;17.40;63.50
15879;DHT22;61999;51.514;14.614;2022-08-19T05:32:40;17.20;63.50
15879;DHT22;61999;51.514;14.614;2022-08-19T05:35:08;17.20;63.70
15879;DHT22;61999;51.514;14.614;2022-08-19T05:37:37;17.20;63.70
15879;DHT22;61999;51.514;14.614;2022-08-19T05:40:07;17.10;64.30
15879;DHT22;61999;51.514;14.614;2022-08-19T05:42:36;16.90;64.70
15879;DHT22;61999;51.514;14.614;2022-08-19T05:45:07;16.90;65.40
15879;DHT22;61999;51.514;14.614;2022-08-19T05:47:36;17.00;65.00
15879;DHT22;61999;51.514;14.614;2022-08-19T05:50:04;16.80;65.10
15879;DHT22;61999;51.514;14.614;2022-08-19T05:52:32;16.80;65.80
15879;DHT22;61999;51.514;14.614;2022-08-19T05:55:03;16.90;65.50
15879;DHT22;61999;51.514;14.614;2022-08-19T05:57:31;16.80;65.40
15879;DHT22;61999;51.514;14.614;2022-08-19T05:59:59;16.60;66.00
15879;DHT22;61999;51.514;14.614;2022-08-19T06:02:30;16.40;66.90
15879;DHT22;61999;51.514;14.614;2022-08-19T06:04:58;16.40;66.90
15879;DHT22;61999;51.514;14.614;2022-08-19T06:07:25;16.50;66.70
15879;DHT22;61999;51.514;14.614;2022-08-19T06:09:54;16.80;66.20
15879;DHT22;61999;51.514;14.614;2022-08-19T06:12:22;16.70;66.10
15879;DHT22;61999;51.514;14.614;2022-08-19T06:14:57;16.80;66.00
15879;DHT22;61999;51.514;14.614;2022-08-19T06:17:25;16.90;66.10
15879;DHT22;61999;51.514;14.614;2022-08-19T06:19:54;17.10;65.80
15879;DHT22;61999;51.514;14.614;2022-08-19T06:22:23;17.20;65.40
15879;DHT22;61999;51.514;14.614;2022-08-19T06:24:51;17.00;65.80
15879;DHT22;61999;51.514;14.614;2022-08-19T06:27:20;17.00;66.20
15879;DHT22;61999;51.514;14.614;2022-08-19T06:29:49;17.10;65.60
15879;DHT22;61999;51.514;14.614;2022-08-19T06:32:17;17.20;65.70
15879;DHT22;61999;51.514;14.614;2022-08-19T06:34:46;17.10;65.30
15879;DHT22;61999;51.514;14.614;2022-08-19T06:37:15;17.20;65.50
15879;DHT22;61999;51.514;14.614;2022-08-19T06:39:44;17.10;65.70
15879;DHT22;61999;51.514;14.614;2022-08-19T06:42:12;17.00;65.90
15879;DHT22;61999;51.514;14.614;2022-08-19T06:44:43;16.80;66.30
15879;DHT22;61999;51.514;14.614;2022-08-19T06:47:14;16.80;66.50
15879;DHT22;61999;51.514;14.614;2022-08-19T06:49:44;16.80;66.50
15879;DHT22;61999;51.514;14.614;2022-08-19T06:52:12;16.90;66.60
15879;DHT22;61999;51.514;14.614;2022-08-19T06:54:42;17.00;66.10
15879;DHT22;61999;51.514;14.614;2022-08-19T06:57:10;17.00;66.10
15879;DHT22;61999;51.514;14.614;2022-08-19T06:59:41;17.00;65.80
15879;DHT22;61999;51.514;14.614;2022-08-19T07:02:09;17.00;66.30
15879;DHT22;61999;51.514;14.614;2022-08-19T07:04:37;17.10;65.70
15879;DHT22;61999;51.514;14.614;2022-08-19T07:07:09;17.10;66.00
15879;DHT22;61999;51.514;14.614;2022-08-19T07:09:42;17.50;64.80
15879;DHT22;61999;51.514;14.614;2022-08-19T07:12:12;17.40;64.70
15879;DHT22;61999;51.514;14.614;2022-08-19T07:14:42;17.30;64.90
15879;DHT22;61999;51.514;14.614;2022-08-19T07:17:12;17.20;65.40
15879;DHT22;61999;51.514;14.614;2022-08-19T07:19:41;17.00;66.00
15879;DHT22;61999;51.514;14.614;2022-08-19T07:22:09;16.90;66.60
15879;DHT22;61999;51.514;14.614;2022-08-19T07:24:38;17.00;66.40
15879;DHT22;61999;51.514;14.614;2022-08-19T07:27:07;17.20;65.90
15879;DHT22;61999;51.514;14.614;2022-08-19T07:29:37;17.40;65.20
15879;DHT22;61999;51.514;14.614;2022-08-19T07:32:05;17.50;65.00
15879;DHT22;61999;51.514;14.614;2022-08-19T07:34:33;17.30;65.00
15879;DHT22;61999;51.514;14.614;2022-08-19T07:37:04;17.30;65.50
15879;DHT22;61999;51.514;14.614;2022-08-19T07:39:35;17.20;65.80
15879;DHT22;61999;51.514;14.614;2022-08-19T07:42:08;17.40;65.20
15879;DHT22;61999;51.514;14.614;2022-08-19T07:44:37;17.50;64.90
15879;DHT22;61999;51.514;14.614;2022-08-19T07:47:06;17.40;64.90
15879;DHT22;61999;51.514;14.614;2022-08-19T07:49:34;17.60;64.60
15879;DHT22;61999;51.514;14.614;2022-08-19T07:52:05;17.70;64.30
15879;DHT22;61999;51.514;14.614;2022-08-19T07:54:38;17.40;64.80
15879;DHT22;61999;51.514;14.614;2022-08-19T07:57:09;17.20;65.70
15879;DHT22;61999;51.514;14.614;2022-08-19T07:59:37;17.00;66.40
15879;DHT22;61999;51.514;14.614;2022-08-19T08:02:05;17.00;66.80
15879;DHT22;61999;51.514;14.614;2022-08-19T08:04:33;16.90;67.50
15879;DHT22;61999;51.514;14.614;2022-08-19T08:07:19;16.70;68.10
15879;DHT22;61999;51.514;14.614;2022-08-19T08:10:06;16.70;68.90
15879;DHT22;61999;51.514;14.614;2022-08-19T08:12:38;16.50;69.50
15879;DHT22;61999;51.514;14.614;2022-08-19T08:15:10;16.40;69.50
15879;DHT22;61999;51.514;14.614;2022-08-19T08:17:43;16.40;69.50
15879;DHT22;61999;51.514;14.614;2022-08-19T08:20:13;16.30;69.70
15879;DHT22;61999;51.514;14.614;2022-08-19T08:22:43;16.20;69.80
15879;DHT22;61999;51.514;14.614;2022-08-19T08:25:29;16.20;70.00
15879;DHT22;61999;51.514;14.614;2022-08-19T08:27:59;16.40;69.80
15879;DHT22;61999;51.514;14.614;2022-08-19T08:30:28;16.50;69.40
15879;DHT22;61999;51.514;14.614;2022-08-19T08:32:59;16.40;69.40
15879;DHT22;61999;51.514;14.614;2022-08-19T08:35:27;16.30;70.00
15879;DHT22;61999;51.514;14.614;2022-08-19T08:37:55;16.40;69.90
15879;DHT22;61999;51.514;14.614;2022-08-19T08:40:27;16.40;70.00
15879;DHT22;61999;51.514;14.614;2022-08-19T08:43:02;16.50;70.00
15879;DHT22;61999;51.514;14.614;2022-08-19T08:45:36;16.70;69.00
15879;DHT22;61999;51.514;14.614;2022-08-19T08:48:15;16.80;68.30
15879;DHT22;61999;51.514;14.614;2022-08-19T08:50:47;16.60;68.70
15879;DHT22;61999;51.514;14.614;2022-08-19T08:53:20;16.50;68.90
15879;DHT22;61999;51.514;14.614;2022-08-19T08:55:49;16.50;68.70
15879;DHT22;61999;51.514;14.614;2022-08-19T08:58:24;16.50;68.80
15879;DHT22;61999;51.514;14.614;2022-08-19T09:00:57;16.40;69.30
15879;DHT22;61999;51.514;14.614;2022-08-19T09:03:27;16.20;69.30
15879;DHT22;61999;51.514;14.614;2022-08-19T09:06:00;16.20;69.90
15879;DHT22;61999;51.514;14.614;2022-08-19T09:08:40;16.20;70.20
15879;DHT22;61999;51.514;14.614;2022-08-19T09:11:19;16.20;69.50
15879;DHT22;61999;51.514;14.614;2022-08-19T09:14:10;16.20;69.70
15879;DHT22;61999;51.514;14.614;2022-08-19T09:17:05;16.20;69.90
15879;DHT22;61999;51.514;14.614;2022-08-19T09:19:35;16.20;69.80
15879;DHT22;61999;51.514;14.614;2022-08-19T09:22:16;16.30;69.30
15879;DHT22;61999;51.514;14.614;2022-08-19T09:24:43;16.20;69.80
15879;DHT22;61999;51.514;14.614;2022-08-19T09:27:11;16.20;70.20
15879;DHT22;61999;51.514;14.614;2022-08-19T09:29:41;16.30;70.30
15879;DHT22;61999;51.514;14.614;2022-08-19T09:32:09;16.50;69.40
15879;DHT22;61999;51.514;14.614;2022-08-19T09:34:37;16.50;69.60
15879;DHT22;61999;51.514;14.614;2022-08-19T09:37:05;16.70;68.70
15879;DHT22;61999;51.514;14.614;2022-08-19T09:39:33;16.80;68.30
15879;DHT22;61999;51.514;14.614;2022-08-19T09:42:01;17.00;67.40
15879;DHT22;61999;51.514;14.614;2022-08-19T09:44:30;17.20;66.80
15879;DHT22;61999;51.514;14.614;2022-08-19T09:47:01;17.20;66.50
15879;DHT22;61999;51.514;14.614;2022-08-19T09:49:30;17.00;66.70
15879;DHT22;61999;51.514;14.614;2022-08-19T09:51:58;17.10;66.80
15879;DHT22;61999;51.514;14.614;2022-08-19T09:54:27;17.10;67.00
15879;DHT22;61999;51.514;14.614;2022-08-19T09:56:58;17.00;67.10
15879;DHT22;61999;51.514;14.614;2022-08-19T09:59:28;17.30;66.20
15879;DHT22;61999;51.514;14.614;2022-08-19T10:01:57;17.20;66.30
15879;DHT22;61999;51.514;14.614;2022-08-19T10:04:26;17.10;66.50
15879;DHT22;61999;51.514;14.614;2022-08-19T10:07:15;17.10;66.80
15879;DHT22;61999;51.514;14.614;2022-08-19T10:09:43;17.10;66.30
15879;DHT22;61999;51.514;14.614;2022-08-19T10:12:10;17.30;66.40
15879;DHT22;61999;51.514;14.614;2022-08-19T10:14:39;17.30;66.20
15879;DHT22;61999;51.514;14.614;2022-08-19T10:17:06;17.20;66.70
15879;DHT22;61999;51.514;14.614;2022-08-19T10:19:36;17.30;66.30
15879;DHT22;61999;51.514;14.614;2022-08-19T10:22:05;17.50;65.90
15879;DHT22;61999;51.514;14.614;2022-08-19T10:24:34;17.70;65.00
15879;DHT22;61999;51.514;14.614;2022-08-19T10:27:02;17.70;65.80
15879;DHT22;61999;51.514;14.614;2022-08-19T10:29:32;17.60;66.50
15879;DHT22;61999;51.514;14.614;2022-08-19T10:32:02;18.10;64.10
15879;DHT22;61999;51.514;14.614;2022-08-19T10:34:32;18.20;63.40
15879;DHT22;61999;51.514;14.614;2022-08-19T10:37:03;18.30;63.20
15879;DHT22;61999;51.514;14.614;2022-08-19T10:39:33;18.40;62.90
15879;DHT22;61999;51.514;14.614;2022-08-19T10:42:05;18.30;62.80
15879;DHT22;61999;51.514;14.614;2022-08-19T10:44:34;18.20;62.70
15879;DHT22;61999;51.514;14.614;2022-08-19T10:47:03;18.20;62.70
15879;DHT22;61999;51.514;14.614;2022-08-19T10:49:31;18.00;63.60
15879;DHT22;61999;51.514;14.614;2022-08-19T10:52:21;18.00;63.40
15879;DHT22;61999;51.514;14.614;2022-08-19T10:55:00;18.00;63.60
15879;DHT22;61999;51.514;14.614;2022-08-19T10:57:58;18.00;63.80
15879;DHT22;61999;51.514;14.614;2022-08-19T11:00:27;17.90;63.60
15879;DHT22;61999;51.514;14.614;2022-08-19T11:02:55;18.00;63.80
15879;DHT22;61999;51.514;14.614;2022-08-19T11:05:23;18.10;63.20
15879;DHT22;61999;51.514;14.614;2022-08-19T11:07:53;18.10;63.00
15879;DHT22;61999;51.514;14.614;2022-08-19T11:10:20;18.10;63.30
15879;DHT22;61999;51.514;14.614;2022-08-19T11:12:49;18.20;63.10
15879;DHT22;61999;51.514;14.614;2022-08-19T11:15:21;18.20;63.00
15879;DHT22;61999;51.514;14.614;2022-08-19T11:17:51;18.30;62.50
15879;DHT22;61999;51.514;14.614;2022-08-19T11:20:21;18.20;62.50
15879;DHT22;61999;51.514;14.614;2022-08-19T11:22:52;18.40;61.90
15879;DHT22;61999;51.514;14.614;2022-08-19T11:25:20;18.40;62.90
15879;DHT22;61999;51.514;14.614;2022-08-19T11:27:48;18.50;62.30
15879;DHT22;61999;51.514;14.614;2022-08-19T11:30:18;18.40;62.30
15879;DHT22;61999;51.514;14.614;2022-08-19T11:32:46;18.30;62.90
15879;DHT22;61999;51.514;14.614;2022-08-19T11:35:15;18.50;62.50
15879;DHT22;61999;51.514;14.614;2022-08-19T11:37:46;18.60;62.10
15879;DHT22;61999;51.514;14.614;2022-08-19T11:40:16;18.80;61.10
15879;DHT22;61999;51.514;14.614;2022-08-19T11:42:44;18.70;61.50
15879;DHT22;61999;51.514;14.614;2022-08-19T11:45:30;18.60;61.70
15879;DHT22;61999;51.514;14.614;2022-08-19T11:47:58;18.70;61.50
15879;DHT22;61999;51.514;14.614;2022-08-19T11:50:25;18.60;61.60
15879;DHT22;61999;51.514;14.614;2022-08-19T11:52:54;18.60;61.50
15879;DHT22;61999;51.514;14.614;2022-08-19T11:55:24;18.70;62.10
15879;DHT22;61999;51.514;14.614;2022-08-19T11:57:53;18.50;62.20
15879;DHT22;61999;51.514;14.614;2022-08-19T12:00:21;18.50;62.50
15879;DHT22;61999;51.514;14.614;2022-08-19T12:02:49;18.60;62.40
15879;DHT22;61999;51.514;14.614;2022-08-19T12:05:17;18.80;61.10
15879;DHT22;61999;51.514;14.614;2022-08-19T12:07:45;18.80;60.80
15879;DHT22;61999;51.514;14.614;2022-08-19T12:10:12;18.80;61.30
15879;DHT22;61999;51.514;14.614;2022-08-19T12:12:42;18.90;60.90
15879;DHT22;61999;51.514;14.614;2022-08-19T12:15:12;18.80;61.10
15879;DHT22;61999;51.514;14.614;2022-08-19T12:17:41;18.80;60.80
15879;DHT22;61999;51.514;14.614;2022-08-19T12:20:10;18.80;61.00
15879;DHT22;61999;51.514;14.614;2022-08-19T12:22:42;18.80;60.90
15879;DHT22;61999;51.514;14.614;2022-08-19T12:25:11;18.80;60.90
15879;DHT22;61999;51.514;14.614;2022-08-19T12:27:39;18.70;61.10
15879;DHT22;61999;51.514;14.614;2022-08-19T12:30:11;18.80;60.80
15879;DHT22;61999;51.514;14.614;2022-08-19T12:32:40;18.80;60.70
15879;DHT22;61999;51.514;14.614;2022-08-19T12:35:08;18.90;60.60
15879;DHT22;61999;51.514;14.614;2022-08-19T12:37:38;19.00;60.40
15879;DHT22;61999;51.514;14.614;2022-08-19T12:40:11;19.00;60.30
15879;DHT22;61999;51.514;14.614;2022-08-19T12:42:40;19.20;59.70
15879;DHT22;61999;51.514;14.614;2022-08-19T12:45:12;19.00;60.30
15879;DHT22;61999;51.514;14.614;2022-08-19T12:47:40;19.10;60.10
15879;DHT22;61999;51.514;14.614;2022-08-19T12:50:09;19.10;60.30
15879;DHT22;61999;51.514;14.614;2022-08-19T12:52:38;19.10;60.50
15879;DHT22;61999;51.514;14.614;2022-08-19T12:55:08;19.30;59.70
15879;DHT22;61999;51.514;14.614;2022-08-19T12:57:38;19.20;59.70
15879;DHT22;61999;51.514;14.614;2022-08-19T13:00:11;19.20;59.70
15879;DHT22;61999;51.514;14.614;2022-08-19T13:02:43;19.20;59.90
15879;DHT22;61999;51.514;14.614;2022-08-19T13:05:14;19.10;60.30
15879;DHT22;61999;51.514;14.614;2022-08-19T13:07:46;19.00;60.80
15879;DHT22;61999;51.514;14.614;2022-08-19T13:10:16;19.30;59.80
15879;DHT22;61999;51.514;14.614;2022-08-19T13:12:49;19.20;59.80
15879;DHT22;61999;51.514;14.614;2022-08-19T13:15:22;19.30;59.70
15879;DHT22;61999;51.514;14.614;2022-08-19T13:17:52;19.20;59.80
15879;DHT22;61999;51.514;14.614;2022-08-19T13:20:22;19.30;59.50
15879;DHT22;61999;51.514;14.614;2022-08-19T13:22:51;19.20;59.70
15879;DHT22;61999;51.514;14.614;2022-08-19T13:25:19;19.10;59.90
15879;DHT22;61999;51.514;14.614;2022-08-19T13:27:49;19.20;59.70
15879;DHT22;61999;51.514;14.614;2022-08-19T13:30:21;19.10;59.60
15879;DHT22;61999;51.514;14.614;2022-08-19T13:33:09;19.00;59.90
15879;DHT22;61999;51.514;14.614;2022-08-19T13:35:43;18.70;60.90
15879;DHT22;61999;51.514;14.614;2022-08-19T13:38:14;18.70;61.30
15879;DHT22;61999;51.514;14.614;2022-08-19T13:40:44;18.60;61.30
15879;DHT22;61999;51.514;14.614;2022-08-19T13:43:13;18.50;62.00
15879;DHT22;61999;51.514;14.614;2022-08-19T13:45:43;18.40;63.00
15879;DHT22;61999;51.514;14.614;2022-08-19T13:48:11;18.50;61.90
15879;DHT22;61999;51.514;14.614;2022-08-19T13:50:41;18.50;62.30
15879;DHT22;61999;51.514;14.614;2022-08-19T13:53:12;18.50;62.50
15879;DHT22;61999;51.514;14.614;2022-08-19T13:55:41;18.50;62.10
15879;DHT22;61999;51.514;14.614;2022-08-19T13:58:11;18.40;62.10
15879;DHT22;61999;51.514;14.614;2022-08-19T14:00:43;18.60;62.00
15879;DHT22;61999;51.514;14.614;2022-08-19T14:03:13;18.40;62.00
15879;DHT22;61999;51.514;14.614;2022-08-19T14:05:41;18.40;62.20
15879;DHT22;61999;51.514;14.614;2022-08-19T14:08:09;18.40;62.30
15879;DHT22;61999;51.514;14.614;2022-08-19T14:10:39;18.30;62.70
15879;DHT22;61999;51.514;14.614;2022-08-19T14:13:07;18.30;62.50
15879;DHT22;61999;51.514;14.614;2022-08-19T14:15:35;18.50;62.10
15879;DHT22;61999;51.514;14.614;2022-08-19T14:18:05;18.30;62.30
15879;DHT22;61999;51.514;14.614;2022-08-19T14:20:34;18.30;62.40
15879;DHT22;61999;51.514;14.614;2022-08-19T14:23:03;18.10;63.10
15879;DHT22;61999;51.514;14.614;2022-08-19T14:25:32;18.20;62.90
15879;DHT22;61999;51.514;14.614;2022-08-19T14:28:03;18.10;63.50
15879;DHT22;61999;51.514;14.614;2022-08-19T14:30:39;18.00;63.20
15879;DHT22;61999;51.514;14.614;2022-08-19T14:33:08;18.00;63.70
15879;DHT22;61999;51.514;14.614;2022-08-19T14:35:37;18.20;63.30
15879;DHT22;61999;51.514;14.614;2022-08-19T14:38:06;18.00;63.60
15879;DHT22;61999;51.514;14.614;2022-08-19T14:40:43;18.10;64.00
15879;DHT22;61999;51.514;14.614;2022-08-19T14:43:12;18.40;63.50
15879;DHT22;61999;51.514;14.614;2022-08-19T14:45:42;18.40;63.60
15879;DHT22;61999;51.514;14.614;2022-08-19T14:48:15;18.50;63.10
15879;DHT22;61999;51.514;14.614;2022-08-19T14:50:43;18.80;62.30
15879;DHT22;61999;51.514;14.614;2022-08-19T14:53:15;18.80;62.30
15879;DHT22;61999;51.514;14.614;2022-08-19T14:55:44;18.80;62.60
15879;DHT22;61999;51.514;14.614;2022-08-19T14:58:13;18.70;63.20
15879;DHT22;61999;51.514;14.614;2022-08-19T15:00:42;18.80;63.00
15879;DHT22;61999;51.514;14.614;2022-08-19T15:03:10;18.70;63.40
15879;DHT22;61999;51.514;14.614;2022-08-19T15:05:41;18.50;63.90
15879;DHT22;61999;51.514;14.614;2022-08-19T15:08:09;18.40;64.00
15879;DHT22;61999;51.514;14.614;2022-08-19T15:10:38;18.30;64.40
15879;DHT22;61999;51.514;14.614;2022-08-19T15:13:07;18.30;64.10
15879;DHT22;61999;51.514;14.614;2022-08-19T15:15:36;18.50;63.90
15879;DHT22;61999;51.514;14.614;2022-08-19T15:18:05;18.60;63.90
15879;DHT22;61999;51.514;14.614;2022-08-19T15:20:33;18.70;63.70
15879;DHT22;61999;51.514;14.614;2022-08-19T15:23:02;18.90;62.70
15879;DHT22;61999;51.514;14.614;2022-08-19T15:25:30;19.00;62.10
15879;DHT22;61999;51.514;14.614;2022-08-19T15:27:59;19.00;62.60
15879;DHT22;61999;51.514;14.614;2022-08-19T15:30:27;19.00;62.30
15879;DHT22;61999;51.514;14.614;2022-08-19T15:32:57;19.20;62.10
15879;DHT22;61999;51.514;14.614;2022-08-19T15:35:25;19.40;62.20